Tehran, Iran

8:43 PM IRST on January 26, 2015 (GMT +0330)
molasadra | Change Station
CLOSE
Current Station
Personal Weather Station
Location: Tehran, TEHRAN
Elevation: 4774 ft
Nearby Weather Stations

Elev 4774 ft 35.76 °N, 51.40 °E | Updated 1 minute ago

Scattered Clouds
Scattered Clouds
41.2 °F
Feels Like 41 °F
N
2.0
Wind Variable Wind from SW
Gusts 3.0 mph

Today
High -- | Low -- °F
--% Chance of Precip.
Yesterday
High -- | Low -- °F
Precip. -- in
7:09 AM 5:25 PM
Waxing Crescent, 45% visible
Pressure 30.18 in
Visibility 6.2 miles
Clouds Few 3500 ft
Scattered Clouds 20000 ft
Windchill 41 °F
Dew Point 25 °F
Humidity 53%
Rainfall 0.00 in
Snow Depth Not available.
UV 0 out of 12
Pollen Not available.
Air Quality Not available.
Flu Activity Not available.
METAR OIII 261700Z 07004KT 9999 FEW035 SCT200 07/M06 Q1022 A3020 NOSIG

More Conditions Fewer Conditions

Pressure 30.18 in
Visibility 6.2 miles
Clouds Few 3500 ft
Scattered Clouds 20000 ft
Windchill 41 °F
Dew Point 25 °F
Humidity 53%
Rainfall 0.00 in
Snow Depth Not available.
UV 0 out of 12
Pollen Not available.
Air Quality Not available.
Flu Activity Not available.
METAR OIII 261700Z 07004KT 9999 FEW035 SCT200 07/M06 Q1022 A3020 NOSIG

More Conditions Fewer Conditions

10-Day Weather Forecast

Almanac

Astronomy

Jan. 26, 2015 Rise Set
Actual Time
Civil Twilight
Nautical Twilight
Astronomical Twilight
Moon
Length of Visible Light
Length of Day
Tomorrow will be .
, % of the Moon is Illuminated

Today's Extremes

Country Highs Country Lows

Community

WunderPhotos

Upload Photos

1,790,298 photos uploaded!

WunderBlogs® & News

Nearby

Air Quality

  Air Quality AQ Index Pollutant
Not available.

Snow Depth

Station Depth Elevation

Earthquake Activity

City Distance Mag. Time & Date
Minimum magnitude displayed is 2.5.

Coastal Water Temperatures

Place Temperature

Nearby Weather Stations